sensor_id;sensor_type;location;lat;lon;timestamp;P1;durP1;ratioP1;P2;durP2;ratioP2
19758;SDS011;10038;42.662;23.278;2022-09-17T00:01:07;4.90;;;4.13;;
19758;SDS011;10038;42.662;23.278;2022-09-17T00:03:38;5.43;;;4.17;;
19758;SDS011;10038;42.662;23.278;2022-09-17T00:06:06;5.30;;;4.60;;
19758;SDS011;10038;42.662;23.278;2022-09-17T00:08:35;5.23;;;3.57;;
19758;SDS011;10038;42.662;23.278;2022-09-17T00:11:06;11.37;;;4.20;;
19758;SDS011;10038;42.662;23.278;2022-09-17T00:13:34;7.13;;;4.20;;
19758;SDS011;10038;42.662;23.278;2022-09-17T00:16:01;10.93;;;4.57;;
19758;SDS011;10038;42.662;23.278;2022-09-17T00:18:28;5.70;;;3.63;;
19758;SDS011;10038;42.662;23.278;2022-09-17T00:20:56;6.50;;;4.20;;
19758;SDS011;10038;42.662;23.278;2022-09-17T00:23:23;10.30;;;3.70;;
19758;SDS011;10038;42.662;23.278;2022-09-17T00:25:50;6.50;;;4.10;;
19758;SDS011;10038;42.662;23.278;2022-09-17T00:28:16;6.80;;;4.70;;
19758;SDS011;10038;42.662;23.278;2022-09-17T00:30:44;5.33;;;3.90;;
19758;SDS011;10038;42.662;23.278;2022-09-17T00:33:12;13.23;;;3.67;;
19758;SDS011;10038;42.662;23.278;2022-09-17T00:35:40;5.20;;;3.30;;
19758;SDS011;10038;42.662;23.278;2022-09-17T00:38:09;6.13;;;3.10;;
19758;SDS011;10038;42.662;23.278;2022-09-17T00:40:36;10.03;;;3.50;;
19758;SDS011;10038;42.662;23.278;2022-09-17T00:43:03;8.50;;;3.10;;
19758;SDS011;10038;42.662;23.278;2022-09-17T00:45:35;4.57;;;3.10;;
19758;SDS011;10038;42.662;23.278;2022-09-17T00:48:03;5.03;;;2.80;;
19758;SDS011;10038;42.662;23.278;2022-09-17T00:50:33;6.93;;;3.73;;
19758;SDS011;10038;42.662;23.278;2022-09-17T00:53:03;5.73;;;3.00;;
19758;SDS011;10038;42.662;23.278;2022-09-17T00:55:33;6.90;;;3.70;;
19758;SDS011;10038;42.662;23.278;2022-09-17T00:58:03;4.83;;;3.73;;
19758;SDS011;10038;42.662;23.278;2022-09-17T01:00:33;6.97;;;3.60;;
19758;SDS011;10038;42.662;23.278;2022-09-17T01:03:01;4.57;;;3.43;;
19758;SDS011;10038;42.662;23.278;2022-09-17T01:05:30;8.97;;;4.03;;
19758;SDS011;10038;42.662;23.278;2022-09-17T01:08:07;4.93;;;3.90;;
19758;SDS011;10038;42.662;23.278;2022-09-17T01:10:57;8.00;;;3.80;;
19758;SDS011;10038;42.662;23.278;2022-09-17T01:13:42;8.47;;;3.80;;
19758;SDS011;10038;42.662;23.278;2022-09-17T01:16:18;4.47;;;3.93;;
19758;SDS011;10038;42.662;23.278;2022-09-17T01:18:54;9.23;;;4.60;;
19758;SDS011;10038;42.662;23.278;2022-09-17T01:21:42;5.67;;;4.37;;
19758;SDS011;10038;42.662;23.278;2022-09-17T01:24:28;6.27;;;3.70;;
19758;SDS011;10038;42.662;23.278;2022-09-17T01:30:13;6.23;;;3.93;;
19758;SDS011;10038;42.662;23.278;2022-09-17T01:32:48;8.53;;;4.80;;
19758;SDS011;10038;42.662;23.278;2022-09-17T01:35:24;5.80;;;3.17;;
19758;SDS011;10038;42.662;23.278;2022-09-17T01:38:00;4.90;;;3.87;;
19758;SDS011;10038;42.662;23.278;2022-09-17T01:40:35;6.03;;;4.30;;
19758;SDS011;10038;42.662;23.278;2022-09-17T01:43:09;6.63;;;4.33;;
19758;SDS011;10038;42.662;23.278;2022-09-17T01:45:46;4.80;;;4.00;;
19758;SDS011;10038;42.662;23.278;2022-09-17T01:48:17;10.17;;;4.80;;
19758;SDS011;10038;42.662;23.278;2022-09-17T01:50:47;10.10;;;5.83;;
19758;SDS011;10038;42.662;23.278;2022-09-17T01:53:17;9.43;;;5.70;;
19758;SDS011;10038;42.662;23.278;2022-09-17T01:55:49;12.67;;;5.83;;
19758;SDS011;10038;42.662;23.278;2022-09-17T01:58:20;7.03;;;6.20;;
19758;SDS011;10038;42.662;23.278;2022-09-17T02:00:52;9.97;;;6.37;;
19758;SDS011;10038;42.662;23.278;2022-09-17T02:03:26;9.60;;;6.57;;
19758;SDS011;10038;42.662;23.278;2022-09-17T02:05:57;9.30;;;6.10;;
19758;SDS011;10038;42.662;23.278;2022-09-17T02:08:28;9.77;;;6.23;;
19758;SDS011;10038;42.662;23.278;2022-09-17T02:11:03;11.13;;;5.23;;
19758;SDS011;10038;42.662;23.278;2022-09-17T02:13:35;7.07;;;5.10;;
19758;SDS011;10038;42.662;23.278;2022-09-17T02:16:06;7.00;;;5.40;;
19758;SDS011;10038;42.662;23.278;2022-09-17T02:18:38;8.30;;;6.30;;
19758;SDS011;10038;42.662;23.278;2022-09-17T02:21:11;12.50;;;5.53;;
19758;SDS011;10038;42.662;23.278;2022-09-17T02:23:44;8.57;;;6.40;;
19758;SDS011;10038;42.662;23.278;2022-09-17T02:26:18;8.90;;;4.03;;
19758;SDS011;10038;42.662;23.278;2022-09-17T02:28:46;13.10;;;5.67;;
19758;SDS011;10038;42.662;23.278;2022-09-17T02:31:16;5.90;;;5.30;;
19758;SDS011;10038;42.662;23.278;2022-09-17T02:33:46;4.63;;;2.90;;
19758;SDS011;10038;42.662;23.278;2022-09-17T02:36:16;6.20;;;3.20;;
19758;SDS011;10038;42.662;23.278;2022-09-17T02:38:43;8.00;;;3.83;;
19758;SDS011;10038;42.662;23.278;2022-09-17T02:41:13;8.70;;;4.40;;
19758;SDS011;10038;42.662;23.278;2022-09-17T02:43:44;15.63;;;5.20;;
19758;SDS011;10038;42.662;23.278;2022-09-17T02:49:17;10.50;;;5.77;;
19758;SDS011;10038;42.662;23.278;2022-09-17T02:51:57;10.50;;;6.20;;
19758;SDS011;10038;42.662;23.278;2022-09-17T02:54:33;9.37;;;6.17;;
19758;SDS011;10038;42.662;23.278;2022-09-17T02:57:11;7.60;;;5.70;;
19758;SDS011;10038;42.662;23.278;2022-09-17T02:59:46;11.97;;;6.87;;
19758;SDS011;10038;42.662;23.278;2022-09-17T03:02:19;10.20;;;7.23;;
19758;SDS011;10038;42.662;23.278;2022-09-17T03:04:52;10.00;;;7.20;;
19758;SDS011;10038;42.662;23.278;2022-09-17T03:07:20;10.27;;;6.73;;
19758;SDS011;10038;42.662;23.278;2022-09-17T03:09:48;10.60;;;7.50;;
19758;SDS011;10038;42.662;23.278;2022-09-17T03:12:15;11.23;;;7.43;;
19758;SDS011;10038;42.662;23.278;2022-09-17T03:14:42;10.97;;;7.70;;
19758;SDS011;10038;42.662;23.278;2022-09-17T03:17:08;8.83;;;7.30;;
19758;SDS011;10038;42.662;23.278;2022-09-17T03:19:36;12.17;;;7.40;;
19758;SDS011;10038;42.662;23.278;2022-09-17T03:22:04;12.27;;;7.73;;
19758;SDS011;10038;42.662;23.278;2022-09-17T03:24:31;11.67;;;7.80;;
19758;SDS011;10038;42.662;23.278;2022-09-17T03:26:57;12.07;;;7.80;;
19758;SDS011;10038;42.662;23.278;2022-09-17T03:29:24;9.40;;;6.60;;
19758;SDS011;10038;42.662;23.278;2022-09-17T03:31:51;10.33;;;6.03;;
19758;SDS011;10038;42.662;23.278;2022-09-17T03:34:17;8.07;;;5.83;;
19758;SDS011;10038;42.662;23.278;2022-09-17T03:36:45;6.73;;;4.93;;
19758;SDS011;10038;42.662;23.278;2022-09-17T03:39:13;9.07;;;4.80;;
19758;SDS011;10038;42.662;23.278;2022-09-17T03:41:40;7.03;;;3.93;;
19758;SDS011;10038;42.662;23.278;2022-09-17T03:44:06;5.73;;;4.40;;
19758;SDS011;10038;42.662;23.278;2022-09-17T03:46:34;6.20;;;4.70;;
19758;SDS011;10038;42.662;23.278;2022-09-17T03:49:01;10.63;;;5.40;;
19758;SDS011;10038;42.662;23.278;2022-09-17T03:51:28;8.17;;;5.47;;
19758;SDS011;10038;42.662;23.278;2022-09-17T03:53:55;6.13;;;4.37;;
19758;SDS011;10038;42.662;23.278;2022-09-17T03:56:23;5.70;;;4.17;;
19758;SDS011;10038;42.662;23.278;2022-09-17T03:58:50;5.47;;;3.30;;
19758;SDS011;10038;42.662;23.278;2022-09-17T04:01:17;11.10;;;4.40;;
19758;SDS011;10038;42.662;23.278;2022-09-17T04:03:44;7.00;;;4.07;;
19758;SDS011;10038;42.662;23.278;2022-09-17T04:06:11;6.73;;;3.90;;
19758;SDS011;10038;42.662;23.278;2022-09-17T04:08:37;7.93;;;3.87;;
19758;SDS011;10038;42.662;23.278;2022-09-17T04:11:04;6.20;;;4.03;;
19758;SDS011;10038;42.662;23.278;2022-09-17T04:13:33;6.97;;;4.80;;
19758;SDS011;10038;42.662;23.278;2022-09-17T04:16:00;5.17;;;3.70;;
19758;SDS011;10038;42.662;23.278;2022-09-17T04:18:27;6.83;;;4.13;;
19758;SDS011;10038;42.662;23.278;2022-09-17T04:20:53;4.33;;;3.70;;
19758;SDS011;10038;42.662;23.278;2022-09-17T04:23:20;6.40;;;4.57;;
19758;SDS011;10038;42.662;23.278;2022-09-17T04:25:47;10.33;;;4.83;;
19758;SDS011;10038;42.662;23.278;2022-09-17T04:28:14;7.80;;;4.80;;
19758;SDS011;10038;42.662;23.278;2022-09-17T04:30:42;7.13;;;4.83;;
19758;SDS011;10038;42.662;23.278;2022-09-17T04:33:09;7.63;;;5.53;;
19758;SDS011;10038;42.662;23.278;2022-09-17T04:35:36;7.50;;;5.20;;
19758;SDS011;10038;42.662;23.278;2022-09-17T04:38:03;8.50;;;5.70;;
19758;SDS011;10038;42.662;23.278;2022-09-17T04:40:30;8.70;;;5.50;;
19758;SDS011;10038;42.662;23.278;2022-09-17T04:42:57;7.10;;;5.70;;
19758;SDS011;10038;42.662;23.278;2022-09-17T04:45:27;8.97;;;5.83;;
19758;SDS011;10038;42.662;23.278;2022-09-17T04:47:56;9.10;;;5.27;;
19758;SDS011;10038;42.662;23.278;2022-09-17T04:50:22;6.77;;;4.80;;
19758;SDS011;10038;42.662;23.278;2022-09-17T04:52:49;7.47;;;4.03;;
19758;SDS011;10038;42.662;23.278;2022-09-17T04:55:16;10.60;;;3.43;;
19758;SDS011;10038;42.662;23.278;2022-09-17T04:57:44;6.63;;;3.63;;
19758;SDS011;10038;42.662;23.278;2022-09-17T05:00:12;9.43;;;3.00;;
19758;SDS011;10038;42.662;23.278;2022-09-17T05:02:40;4.63;;;2.60;;
19758;SDS011;10038;42.662;23.278;2022-09-17T05:05:09;8.10;;;2.80;;
19758;SDS011;10038;42.662;23.278;2022-09-17T05:07:36;8.87;;;2.33;;
19758;SDS011;10038;42.662;23.278;2022-09-17T05:10:04;3.67;;;2.10;;
19758;SDS011;10038;42.662;23.278;2022-09-17T05:12:31;4.37;;;3.10;;
19758;SDS011;10038;42.662;23.278;2022-09-17T05:14:58;13.23;;;2.67;;
19758;SDS011;10038;42.662;23.278;2022-09-17T05:17:24;14.00;;;3.33;;
19758;SDS011;10038;42.662;23.278;2022-09-17T05:19:51;6.23;;;2.50;;
19758;SDS011;10038;42.662;23.278;2022-09-17T05:22:19;5.50;;;2.27;;
19758;SDS011;10038;42.662;23.278;2022-09-17T05:24:46;3.70;;;2.10;;
19758;SDS011;10038;42.662;23.278;2022-09-17T05:27:13;2.20;;;1.70;;
19758;SDS011;10038;42.662;23.278;2022-09-17T05:29:40;5.03;;;1.93;;
19758;SDS011;10038;42.662;23.278;2022-09-17T05:32:06;3.80;;;2.00;;
19758;SDS011;10038;42.662;23.278;2022-09-17T05:34:33;5.00;;;1.83;;
19758;SDS011;10038;42.662;23.278;2022-09-17T05:37:00;2.90;;;1.90;;
19758;SDS011;10038;42.662;23.278;2022-09-17T05:39:28;2.83;;;1.60;;
19758;SDS011;10038;42.662;23.278;2022-09-17T05:41:55;3.67;;;1.60;;
19758;SDS011;10038;42.662;23.278;2022-09-17T05:44:21;2.30;;;1.57;;
19758;SDS011;10038;42.662;23.278;2022-09-17T05:46:51;3.20;;;1.40;;
19758;SDS011;10038;42.662;23.278;2022-09-17T05:49:18;3.83;;;1.97;;
19758;SDS011;10038;42.662;23.278;2022-09-17T05:51:45;6.50;;;1.50;;
19758;SDS011;10038;42.662;23.278;2022-09-17T05:54:12;2.90;;;1.30;;
19758;SDS011;10038;42.662;23.278;2022-09-17T05:56:40;3.60;;;1.57;;
19758;SDS011;10038;42.662;23.278;2022-09-17T05:59:07;2.50;;;1.77;;
19758;SDS011;10038;42.662;23.278;2022-09-17T06:01:33;6.00;;;2.03;;
19758;SDS011;10038;42.662;23.278;2022-09-17T06:04:00;1.40;;;1.10;;
19758;SDS011;10038;42.662;23.278;2022-09-17T06:06:27;3.33;;;1.43;;
19758;SDS011;10038;42.662;23.278;2022-09-17T06:08:55;4.03;;;1.67;;
19758;SDS011;10038;42.662;23.278;2022-09-17T06:11:21;2.87;;;1.20;;
19758;SDS011;10038;42.662;23.278;2022-09-17T06:13:52;1.50;;;1.20;;
19758;SDS011;10038;42.662;23.278;2022-09-17T06:16:20;2.13;;;1.10;;
19758;SDS011;10038;42.662;23.278;2022-09-17T06:18:47;3.97;;;1.70;;
19758;SDS011;10038;42.662;23.278;2022-09-17T06:21:14;1.77;;;1.40;;
19758;SDS011;10038;42.662;23.278;2022-09-17T06:23:42;5.87;;;2.60;;
19758;SDS011;10038;42.662;23.278;2022-09-17T06:26:09;2.67;;;2.40;;
19758;SDS011;10038;42.662;23.278;2022-09-17T06:28:36;3.77;;;2.23;;
19758;SDS011;10038;42.662;23.278;2022-09-17T06:31:05;3.90;;;1.97;;
19758;SDS011;10038;42.662;23.278;2022-09-17T06:33:33;5.63;;;2.20;;
19758;SDS011;10038;42.662;23.278;2022-09-17T06:36:01;4.47;;;1.90;;
19758;SDS011;10038;42.662;23.278;2022-09-17T06:38:30;1.70;;;1.43;;
19758;SDS011;10038;42.662;23.278;2022-09-17T06:40:58;2.90;;;1.67;;
19758;SDS011;10038;42.662;23.278;2022-09-17T06:43:25;3.37;;;1.50;;
19758;SDS011;10038;42.662;23.278;2022-09-17T06:45:52;4.30;;;2.20;;
19758;SDS011;10038;42.662;23.278;2022-09-17T06:48:21;6.03;;;2.13;;
19758;SDS011;10038;42.662;23.278;2022-09-17T06:50:48;3.00;;;2.53;;
19758;SDS011;10038;42.662;23.278;2022-09-17T06:53:18;4.30;;;1.83;;
19758;SDS011;10038;42.662;23.278;2022-09-17T06:55:45;4.70;;;2.37;;
19758;SDS011;10038;42.662;23.278;2022-09-17T06:58:12;3.20;;;2.57;;
19758;SDS011;10038;42.662;23.278;2022-09-17T07:00:39;8.43;;;2.20;;
19758;SDS011;10038;42.662;23.278;2022-09-17T07:03:05;3.47;;;1.87;;
19758;SDS011;10038;42.662;23.278;2022-09-17T07:05:33;3.50;;;2.37;;
19758;SDS011;10038;42.662;23.278;2022-09-17T07:08:00;4.97;;;3.33;;
19758;SDS011;10038;42.662;23.278;2022-09-17T07:10:28;8.57;;;2.30;;
19758;SDS011;10038;42.662;23.278;2022-09-17T07:12:56;2.33;;;2.07;;
19758;SDS011;10038;42.662;23.278;2022-09-17T07:15:23;4.73;;;2.60;;
19758;SDS011;10038;42.662;23.278;2022-09-17T07:17:50;5.43;;;2.53;;
19758;SDS011;10038;42.662;23.278;2022-09-17T07:20:17;6.60;;;3.17;;
19758;SDS011;10038;42.662;23.278;2022-09-17T07:22:45;6.03;;;2.50;;
19758;SDS011;10038;42.662;23.278;2022-09-17T07:25:20;5.83;;;2.30;;
19758;SDS011;10038;42.662;23.278;2022-09-17T07:27:47;3.50;;;2.60;;
19758;SDS011;10038;42.662;23.278;2022-09-17T07:30:14;6.23;;;3.10;;
19758;SDS011;10038;42.662;23.278;2022-09-17T07:32:40;10.13;;;4.00;;
19758;SDS011;10038;42.662;23.278;2022-09-17T07:35:07;9.07;;;4.33;;
19758;SDS011;10038;42.662;23.278;2022-09-17T07:37:34;5.20;;;3.83;;
19758;SDS011;10038;42.662;23.278;2022-09-17T07:40:02;6.80;;;3.63;;
19758;SDS011;10038;42.662;23.278;2022-09-17T07:42:31;5.73;;;4.00;;
19758;SDS011;10038;42.662;23.278;2022-09-17T07:44:58;3.97;;;3.13;;
19758;SDS011;10038;42.662;23.278;2022-09-17T07:47:25;6.50;;;3.33;;
19758;SDS011;10038;42.662;23.278;2022-09-17T07:49:52;4.47;;;3.33;;
19758;SDS011;10038;42.662;23.278;2022-09-17T07:52:18;7.77;;;3.80;;
19758;SDS011;10038;42.662;23.278;2022-09-17T07:54:45;6.73;;;3.07;;
19758;SDS011;10038;42.662;23.278;2022-09-17T07:57:14;6.77;;;3.60;;
19758;SDS011;10038;42.662;23.278;2022-09-17T07:59:40;4.97;;;3.40;;
19758;SDS011;10038;42.662;23.278;2022-09-17T08:02:08;8.10;;;3.77;;
19758;SDS011;10038;42.662;23.278;2022-09-17T08:04:37;8.43;;;3.80;;
19758;SDS011;10038;42.662;23.278;2022-09-17T08:07:03;6.20;;;3.17;;
19758;SDS011;10038;42.662;23.278;2022-09-17T08:09:30;7.10;;;2.80;;
19758;SDS011;10038;42.662;23.278;2022-09-17T08:11:57;5.40;;;2.63;;
19758;SDS011;10038;42.662;23.278;2022-09-17T08:14:26;5.03;;;3.63;;
19758;SDS011;10038;42.662;23.278;2022-09-17T08:16:52;6.30;;;3.63;;
19758;SDS011;10038;42.662;23.278;2022-09-17T08:19:19;7.87;;;4.40;;
19758;SDS011;10038;42.662;23.278;2022-09-17T08:21:46;6.80;;;4.93;;
19758;SDS011;10038;42.662;23.278;2022-09-17T08:24:13;6.90;;;4.70;;
19758;SDS011;10038;42.662;23.278;2022-09-17T08:26:40;10.00;;;4.90;;
19758;SDS011;10038;42.662;23.278;2022-09-17T08:29:07;6.13;;;4.03;;
19758;SDS011;10038;42.662;23.278;2022-09-17T08:31:36;5.57;;;3.40;;
19758;SDS011;10038;42.662;23.278;2022-09-17T08:34:05;4.40;;;3.57;;
19758;SDS011;10038;42.662;23.278;2022-09-17T08:36:33;6.07;;;3.40;;
19758;SDS011;10038;42.662;23.278;2022-09-17T08:38:59;5.37;;;3.17;;
19758;SDS011;10038;42.662;23.278;2022-09-17T08:41:28;4.50;;;3.60;;
19758;SDS011;10038;42.662;23.278;2022-09-17T08:44:08;4.90;;;3.23;;
19758;SDS011;10038;42.662;23.278;2022-09-17T08:46:45;6.17;;;3.03;;
19758;SDS011;10038;42.662;23.278;2022-09-17T08:49:17;5.50;;;3.60;;
19758;SDS011;10038;42.662;23.278;2022-09-17T08:51:54;6.90;;;2.77;;
19758;SDS011;10038;42.662;23.278;2022-09-17T08:54:32;5.70;;;2.60;;
19758;SDS011;10038;42.662;23.278;2022-09-17T08:57:10;8.70;;;2.77;;
19758;SDS011;10038;42.662;23.278;2022-09-17T08:59:46;3.07;;;2.73;;
19758;SDS011;10038;42.662;23.278;2022-09-17T09:02:20;4.73;;;2.80;;
19758;SDS011;10038;42.662;23.278;2022-09-17T09:04:58;3.17;;;2.20;;
19758;SDS011;10038;42.662;23.278;2022-09-17T09:07:29;3.77;;;2.37;;
19758;SDS011;10038;42.662;23.278;2022-09-17T09:10:04;3.20;;;2.33;;
19758;SDS011;10038;42.662;23.278;2022-09-17T09:12:36;8.47;;;2.40;;
19758;SDS011;10038;42.662;23.278;2022-09-17T09:15:06;4.27;;;2.87;;
19758;SDS011;10038;42.662;23.278;2022-09-17T09:17:44;5.00;;;3.27;;
19758;SDS011;10038;42.662;23.278;2022-09-17T09:20:15;8.87;;;3.43;;
19758;SDS011;10038;42.662;23.278;2022-09-17T09:22:46;10.40;;;2.83;;
19758;SDS011;10038;42.662;23.278;2022-09-17T09:25:17;3.47;;;2.77;;
19758;SDS011;10038;42.662;23.278;2022-09-17T09:27:54;4.90;;;3.60;;
19758;SDS011;10038;42.662;23.278;2022-09-17T09:30:36;5.27;;;2.40;;
19758;SDS011;10038;42.662;23.278;2022-09-17T09:33:13;4.63;;;2.77;;
19758;SDS011;10038;42.662;23.278;2022-09-17T09:35:42;4.40;;;3.80;;
19758;SDS011;10038;42.662;23.278;2022-09-17T09:38:11;4.53;;;2.63;;
19758;SDS011;10038;42.662;23.278;2022-09-17T09:40:45;8.23;;;3.27;;
19758;SDS011;10038;42.662;23.278;2022-09-17T09:43:19;4.17;;;3.10;;
19758;SDS011;10038;42.662;23.278;2022-09-17T09:45:58;6.07;;;3.13;;
19758;SDS011;10038;42.662;23.278;2022-09-17T09:48:42;6.53;;;3.60;;
19758;SDS011;10038;42.662;23.278;2022-09-17T09:51:19;6.23;;;3.40;;
19758;SDS011;10038;42.662;23.278;2022-09-17T09:54:01;7.30;;;3.30;;
19758;SDS011;10038;42.662;23.278;2022-09-17T09:56:39;6.73;;;3.93;;
19758;SDS011;10038;42.662;23.278;2022-09-17T09:59:14;6.83;;;4.10;;
19758;SDS011;10038;42.662;23.278;2022-09-17T10:01:41;4.50;;;4.00;;
19758;SDS011;10038;42.662;23.278;2022-09-17T10:04:15;6.87;;;4.60;;
19758;SDS011;10038;42.662;23.278;2022-09-17T10:06:45;6.30;;;4.17;;
19758;SDS011;10038;42.662;23.278;2022-09-17T10:09:13;6.17;;;4.30;;
19758;SDS011;10038;42.662;23.278;2022-09-17T10:11:42;10.17;;;4.67;;
19758;SDS011;10038;42.662;23.278;2022-09-17T10:14:24;11.67;;;5.33;;
19758;SDS011;10038;42.662;23.278;2022-09-17T10:17:02;6.20;;;4.80;;
19758;SDS011;10038;42.662;23.278;2022-09-17T10:20:06;14.57;;;4.87;;
19758;SDS011;10038;42.662;23.278;2022-09-17T10:22:39;8.43;;;5.10;;
19758;SDS011;10038;42.662;23.278;2022-09-17T10:25:18;8.87;;;5.40;;
19758;SDS011;10038;42.662;23.278;2022-09-17T10:27:54;7.07;;;5.07;;
19758;SDS011;10038;42.662;23.278;2022-09-17T10:30:22;10.90;;;5.47;;
19758;SDS011;10038;42.662;23.278;2022-09-17T10:35:54;6.43;;;3.23;;
19758;SDS011;10038;42.662;23.278;2022-09-17T10:38:27;3.47;;;1.93;;
19758;SDS011;10038;42.662;23.278;2022-09-17T10:41:07;2.90;;;1.60;;
19758;SDS011;10038;42.662;23.278;2022-09-17T10:43:35;2.60;;;1.20;;
19758;SDS011;10038;42.662;23.278;2022-09-17T10:46:02;3.93;;;1.37;;
19758;SDS011;10038;42.662;23.278;2022-09-17T10:48:30;1.40;;;1.10;;
19758;SDS011;10038;42.662;23.278;2022-09-17T10:51:00;3.90;;;1.90;;
19758;SDS011;10038;42.662;23.278;2022-09-17T10:53:30;3.83;;;1.70;;
19758;SDS011;10038;42.662;23.278;2022-09-17T10:56:00;4.80;;;2.57;;
19758;SDS011;10038;42.662;23.278;2022-09-17T10:58:40;5.20;;;3.30;;
19758;SDS011;10038;42.662;23.278;2022-09-17T11:01:21;5.90;;;3.60;;
19758;SDS011;10038;42.662;23.278;2022-09-17T11:04:01;4.43;;;3.70;;
19758;SDS011;10038;42.662;23.278;2022-09-17T11:09:50;5.63;;;3.67;;
19758;SDS011;10038;42.662;23.278;2022-09-17T11:12:34;7.20;;;2.83;;
19758;SDS011;10038;42.662;23.278;2022-09-17T11:15:10;5.23;;;3.43;;
19758;SDS011;10038;42.662;23.278;2022-09-17T11:20:54;3.40;;;2.80;;
19758;SDS011;10038;42.662;23.278;2022-09-17T11:23:36;5.13;;;3.83;;
19758;SDS011;10038;42.662;23.278;2022-09-17T11:26:23;5.43;;;3.33;;
19758;SDS011;10038;42.662;23.278;2022-09-17T11:28:59;4.57;;;3.37;;
19758;SDS011;10038;42.662;23.278;2022-09-17T11:31:43;4.57;;;3.33;;
19758;SDS011;10038;42.662;23.278;2022-09-17T11:34:21;4.73;;;3.27;;
19758;SDS011;10038;42.662;23.278;2022-09-17T11:36:56;4.63;;;2.93;;
19758;SDS011;10038;42.662;23.278;2022-09-17T11:39:31;6.10;;;3.83;;
19758;SDS011;10038;42.662;23.278;2022-09-17T11:42:07;6.90;;;4.67;;
19758;SDS011;10038;42.662;23.278;2022-09-17T11:44:39;5.17;;;3.80;;
19758;SDS011;10038;42.662;23.278;2022-09-17T11:47:12;8.60;;;3.90;;
19758;SDS011;10038;42.662;23.278;2022-09-17T11:49:44;7.27;;;3.07;;
19758;SDS011;10038;42.662;23.278;2022-09-17T11:52:17;7.03;;;3.60;;
19758;SDS011;10038;42.662;23.278;2022-09-17T11:54:51;4.87;;;2.70;;
19758;SDS011;10038;42.662;23.278;2022-09-17T11:57:24;4.87;;;3.40;;
19758;SDS011;10038;42.662;23.278;2022-09-17T12:00:18;4.77;;;2.77;;
19758;SDS011;10038;42.662;23.278;2022-09-17T12:02:49;8.50;;;3.20;;
19758;SDS011;10038;42.662;23.278;2022-09-17T12:05:19;3.87;;;2.67;;
19758;SDS011;10038;42.662;23.278;2022-09-17T12:07:52;3.00;;;1.80;;
19758;SDS011;10038;42.662;23.278;2022-09-17T12:13:13;2.40;;;2.20;;
19758;SDS011;10038;42.662;23.278;2022-09-17T12:15:45;3.73;;;1.73;;
19758;SDS011;10038;42.662;23.278;2022-09-17T12:18:23;3.53;;;1.37;;
19758;SDS011;10038;42.662;23.278;2022-09-17T12:20:58;1.20;;;1.00;;
19758;SDS011;10038;42.662;23.278;2022-09-17T12:23:31;4.10;;;1.20;;
19758;SDS011;10038;42.662;23.278;2022-09-17T12:26:06;1.03;;;0.77;;
19758;SDS011;10038;42.662;23.278;2022-09-17T12:28:45;0.90;;;0.60;;
19758;SDS011;10038;42.662;23.278;2022-09-17T12:31:19;1.60;;;1.10;;
19758;SDS011;10038;42.662;23.278;2022-09-17T12:33:53;3.73;;;1.00;;
19758;SDS011;10038;42.662;23.278;2022-09-17T12:36:27;1.10;;;0.73;;
19758;SDS011;10038;42.662;23.278;2022-09-17T12:42:04;2.13;;;0.77;;
19758;SDS011;10038;42.662;23.278;2022-09-17T12:44:45;1.97;;;1.07;;
19758;SDS011;10038;42.662;23.278;2022-09-17T12:50:30;1.13;;;0.80;;
19758;SDS011;10038;42.662;23.278;2022-09-17T12:53:11;1.70;;;0.83;;
19758;SDS011;10038;42.662;23.278;2022-09-17T12:56:01;1.40;;;1.17;;
19758;SDS011;10038;42.662;23.278;2022-09-17T12:58:38;6.10;;;0.97;;
19758;SDS011;10038;42.662;23.278;2022-09-17T13:01:23;2.90;;;1.10;;
19758;SDS011;10038;42.662;23.278;2022-09-17T13:03:57;1.27;;;0.80;;
19758;SDS011;10038;42.662;23.278;2022-09-17T13:06:42;4.50;;;1.20;;
19758;SDS011;10038;42.662;23.278;2022-09-17T13:12:34;1.57;;;0.97;;
19758;SDS011;10038;42.662;23.278;2022-09-17T13:15:21;1.73;;;0.90;;
19758;SDS011;10038;42.662;23.278;2022-09-17T13:18:10;3.20;;;0.90;;
19758;SDS011;10038;42.662;23.278;2022-09-17T13:20:43;1.30;;;0.70;;
19758;SDS011;10038;42.662;23.278;2022-09-17T13:23:27;2.03;;;0.80;;
19758;SDS011;10038;42.662;23.278;2022-09-17T13:25:58;1.33;;;0.70;;
19758;SDS011;10038;42.662;23.278;2022-09-17T13:28:36;1.23;;;0.97;;
19758;SDS011;10038;42.662;23.278;2022-09-17T13:31:06;1.13;;;0.80;;
19758;SDS011;10038;42.662;23.278;2022-09-17T13:33:54;1.17;;;0.70;;
19758;SDS011;10038;42.662;23.278;2022-09-17T13:36:39;1.00;;;0.70;;
19758;SDS011;10038;42.662;23.278;2022-09-17T13:42:05;1.73;;;1.00;;
19758;SDS011;10038;42.662;23.278;2022-09-17T13:44:39;1.10;;;0.70;;
19758;SDS011;10038;42.662;23.278;2022-09-17T13:47:11;2.70;;;1.00;;
19758;SDS011;10038;42.662;23.278;2022-09-17T13:49:44;1.77;;;0.90;;
19758;SDS011;10038;42.662;23.278;2022-09-17T13:52:13;2.47;;;0.90;;
19758;SDS011;10038;42.662;23.278;2022-09-17T13:54:53;1.20;;;0.80;;
19758;SDS011;10038;42.662;23.278;2022-09-17T13:57:21;2.87;;;2.10;;
19758;SDS011;10038;42.662;23.278;2022-09-17T13:59:52;1.60;;;1.10;;
19758;SDS011;10038;42.662;23.278;2022-09-17T14:02:32;2.00;;;1.00;;
19758;SDS011;10038;42.662;23.278;2022-09-17T14:08:11;1.53;;;1.10;;
19758;SDS011;10038;42.662;23.278;2022-09-17T14:10:40;1.40;;;0.90;;
19758;SDS011;10038;42.662;23.278;2022-09-17T14:16:30;4.20;;;1.73;;
19758;SDS011;10038;42.662;23.278;2022-09-17T14:19:02;4.60;;;2.00;;
19758;SDS011;10038;42.662;23.278;2022-09-17T14:21:54;6.13;;;2.13;;
19758;SDS011;10038;42.662;23.278;2022-09-17T14:24:24;5.37;;;2.33;;
19758;SDS011;10038;42.662;23.278;2022-09-17T14:30:04;3.80;;;1.90;;
19758;SDS011;10038;42.662;23.278;2022-09-17T14:32:37;4.93;;;2.10;;
19758;SDS011;10038;42.662;23.278;2022-09-17T14:35:15;4.23;;;1.30;;
19758;SDS011;10038;42.662;23.278;2022-09-17T14:37:48;3.70;;;1.60;;
19758;SDS011;10038;42.662;23.278;2022-09-17T14:40:20;1.50;;;1.30;;
19758;SDS011;10038;42.662;23.278;2022-09-17T14:42:50;2.13;;;1.90;;
19758;SDS011;10038;42.662;23.278;2022-09-17T14:45:21;5.87;;;1.93;;
19758;SDS011;10038;42.662;23.278;2022-09-17T14:51:00;9.33;;;2.80;;
19758;SDS011;10038;42.662;23.278;2022-09-17T14:53:42;3.37;;;1.93;;
19758;SDS011;10038;42.662;23.278;2022-09-17T14:56:09;3.00;;;2.07;;
19758;SDS011;10038;42.662;23.278;2022-09-17T14:58:39;4.30;;;2.50;;
19758;SDS011;10038;42.662;23.278;2022-09-17T15:01:13;4.97;;;2.63;;
19758;SDS011;10038;42.662;23.278;2022-09-17T15:03:47;3.80;;;2.43;;
19758;SDS011;10038;42.662;23.278;2022-09-17T15:06:20;4.30;;;3.27;;
19758;SDS011;10038;42.662;23.278;2022-09-17T15:08:47;4.33;;;2.87;;
19758;SDS011;10038;42.662;23.278;2022-09-17T15:11:14;8.33;;;4.40;;
19758;SDS011;10038;42.662;23.278;2022-09-17T15:13:43;3.30;;;2.57;;
19758;SDS011;10038;42.662;23.278;2022-09-17T15:16:15;5.37;;;2.60;;
19758;SDS011;10038;42.662;23.278;2022-09-17T15:18:46;2.30;;;1.87;;
19758;SDS011;10038;42.662;23.278;2022-09-17T15:21:17;4.03;;;2.20;;
19758;SDS011;10038;42.662;23.278;2022-09-17T15:23:55;3.90;;;2.60;;
19758;SDS011;10038;42.662;23.278;2022-09-17T15:26:26;2.60;;;2.17;;
19758;SDS011;10038;42.662;23.278;2022-09-17T15:28:57;6.53;;;4.23;;
19758;SDS011;10038;42.662;23.278;2022-09-17T15:31:25;5.87;;;2.77;;
19758;SDS011;10038;42.662;23.278;2022-09-17T15:33:54;3.33;;;2.47;;
19758;SDS011;10038;42.662;23.278;2022-09-17T15:36:26;7.63;;;4.40;;
19758;SDS011;10038;42.662;23.278;2022-09-17T15:38:55;6.00;;;2.90;;
19758;SDS011;10038;42.662;23.278;2022-09-17T15:41:32;8.43;;;3.37;;